CheckWX is a tool to help pilots better visualize weather data.  It is not intended as a substitute for an official pre-flight weather briefing.

06:12:10 UTC

KOFP METAR
Hanover County Municipal Airport
Richmond/Ashland, Virginia, USA
Current

18 mins ago

KOFP 230554Z AUTO 00000KT 10SM CLR 11/08 A3011 RMK AO2 SLP195 T01060083 10183 20106 58002
Observed
Apr-23 @ 05:54 UTC
Visibility
10 SM
Flight Rules
VFR
Cloud Levels
  • Clear skies
Temperature
11°C / 52°F
Dewpoint
C / 46°F
Humidity
82%
Altimeter
30.11" Hg
Pressure
1019.62 hPa
Previous

1 hour ago

KOFP 230454Z AUTO 19003KT 10SM CLR 11/08 A3012 RMK AO2 SLP198 T01110083 402390111
Observed
Apr-23 @ 04:54 UTC
Wind
  • 190° at 3 KTS
Visibility
10 SM
Flight Rules
VFR
Cloud Levels
  • Clear skies
Temperature
11°C / 52°F
Dewpoint
C / 46°F
Humidity
82%
Altimeter
30.12" Hg
Pressure
1020.02 hPa
Previous

2 hours ago

KOFP 230354Z AUTO 00000KT 10SM CLR 11/08 A3011 RMK AO2 SLP196 T01110078
Observed
Apr-23 @ 03:54 UTC
Visibility
10 SM
Flight Rules
VFR
Cloud Levels
  • Clear skies
Temperature
11°C / 52°F
Dewpoint
C / 46°F
Humidity
82%
Altimeter
30.11" Hg
Pressure
1019.62 hPa